Time;durP1;ratioP1;P1;durP2;ratioP2;P2;SDS_P1;SDS_P2;PMS_P1;PMS_P2;Temp;Humidity;BMP_temperature;BMP_pressure;BME280_temperature;BME280_humidity;BME280_pressure;Samples;Min_cycle;Max_cycle;Signal;HPM_P1;HPM_P2
2021/10/21 00:01:43;;;;;;;0.40;0.20;;;;;;;17.65;84.40;99251.72;5075004;28;20502;-71
2021/10/21 00:04:09;;;;;;;0.40;0.27;;;;;;;17.69;84.18;99259.97;5075008;28;20516;-71
2021/10/21 00:06:36;;;;;;;0.40;0.30;;;;;;;17.68;84.30;99252.91;5076089;28;20500;-71
2021/10/21 00:09:04;;;;;;;0.40;0.20;;;;;;;17.66;84.43;99249.75;5074870;28;20830;-71
2021/10/21 00:11:31;;;;;;;0.40;0.27;;;;;;;17.66;84.28;99241.56;5074834;28;20453;-71
2021/10/21 00:13:58;;;;;;;0.40;0.30;;;;;;;17.63;84.50;99234.13;5074798;28;20448;-71
2021/10/21 00:16:24;;;;;;;0.40;0.30;;;;;;;17.68;84.54;99222.00;5074678;28;20512;-71
2021/10/21 00:18:51;;;;;;;0.40;0.30;;;;;;;17.65;84.39;99221.59;5074476;28;20555;-71
2021/10/21 00:21:18;;;;;;;0.40;0.20;;;;;;;17.67;84.45;99217.72;5074683;28;20505;-71
2021/10/21 00:23:45;;;;;;;0.40;0.20;;;;;;;17.65;84.44;99205.16;5074618;28;20442;-71
2021/10/21 00:26:13;;;;;;;0.40;0.30;;;;;;;17.64;84.64;99202.81;5073901;28;20477;-71
2021/10/21 00:28:40;;;;;;;0.40;0.30;;;;;;;17.62;84.61;99205.16;5074490;28;20452;-71
2021/10/21 00:31:07;;;;;;;0.40;0.30;;;;;;;17.63;84.76;99198.50;5074469;28;20441;-71
2021/10/21 00:33:34;;;;;;;0.40;0.30;;;;;;;17.65;84.48;99199.69;5074426;28;20452;-71
2021/10/21 00:36:00;;;;;;;0.40;0.30;;;;;;;17.69;84.42;99201.66;5074121;28;20434;-71
2021/10/21 00:38:27;;;;;;;0.40;0.23;;;;;;;17.63;84.41;99198.50;5074178;28;20468;-71
2021/10/21 00:40:53;;;;;;;0.40;0.30;;;;;;;17.65;84.74;99196.94;5074256;28;20437;-70
2021/10/21 00:43:21;;;;;;;0.40;0.30;;;;;;;17.64;84.74;99189.13;5074167;28;20445;-70
2021/10/21 00:45:47;;;;;;;0.40;0.30;;;;;;;17.62;84.92;99178.56;5074134;28;20867;-70
2021/10/21 00:48:14;;;;;;;0.40;0.30;;;;;;;17.63;84.96;99179.34;5073959;28;20485;-70
2021/10/21 00:50:41;;;;;;;0.40;0.20;;;;;;;17.60;84.74;99171.88;5074086;28;20816;-70
2021/10/21 00:53:09;;;;;;;0.40;0.20;;;;;;;17.59;84.91;99159.38;5073603;28;20924;-70
2021/10/21 00:55:36;;;;;;;0.40;0.30;;;;;;;17.63;84.82;99158.22;5073729;28;20438;-70
2021/10/21 00:58:04;;;;;;;0.40;0.30;;;;;;;17.62;84.82;99156.66;5073843;28;20460;-70
2021/10/21 01:00:32;;;;;;;0.40;0.30;;;;;;;17.62;84.89;99145.72;5073841;28;20477;-70
2021/10/21 01:02:59;;;;;;;0.40;0.20;;;;;;;17.59;84.89;99143.72;5073844;28;20444;-70
2021/10/21 01:05:26;;;;;;;0.40;0.30;;;;;;;17.54;85.19;99130.41;5074030;28;20441;-70
2021/10/21 01:07:52;;;;;;;0.40;0.20;;;;;;;17.58;85.09;99125.72;5073656;28;20512;-70
2021/10/21 01:10:19;;;;;;;0.40;0.20;;;;;;;17.55;85.30;99115.53;5073658;28;20438;-70
2021/10/21 01:12:45;;;;;;;0.40;0.30;;;;;;;17.53;85.63;99115.16;5073925;28;20445;-70
2021/10/21 01:15:17;;;;;;;0.40;0.30;;;;;;;17.47;85.96;99100.25;5073130;28;20489;-70
2021/10/21 01:17:45;;;;;;;0.40;0.30;;;;;;;17.45;85.98;99101.81;5073534;28;20888;-70
2021/10/21 01:20:13;;;;;;;0.40;0.23;;;;;;;17.47;86.14;99085.78;5073312;28;20449;-70
2021/10/21 01:22:40;;;;;;;0.40;0.30;;;;;;;17.47;85.91;99069.34;5073427;28;20445;-70
2021/10/21 01:25:07;;;;;;;0.40;0.20;;;;;;;17.44;86.26;99067.38;5073348;28;20441;-70
2021/10/21 01:27:34;;;;;;;0.40;0.40;;;;;;;17.40;86.54;99053.69;5072876;28;20998;-70
2021/10/21 01:30:00;;;;;;;0.40;0.20;;;;;;;17.37;86.42;99063.44;5073312;28;20441;-70
2021/10/21 01:32:28;;;;;;;0.40;0.30;;;;;;;17.32;87.05;99050.13;5073179;28;20449;-70
2021/10/21 01:34:54;;;;;;;0.40;0.27;;;;;;;17.17;88.56;99039.47;5073193;28;20855;-70
2021/10/21 01:37:22;;;;;;;0.40;0.20;;;;;;;17.17;88.22;99037.53;5071764;28;20457;-70
2021/10/21 01:39:48;;;;;;;0.40;0.20;;;;;;;17.23;87.73;99035.22;5073122;28;20441;-70
2021/10/21 01:42:15;;;;;;;0.40;0.20;;;;;;;17.13;88.36;99014.81;5073152;28;20474;-70
2021/10/21 01:44:42;;;;;;;0.40;0.30;;;;;;;17.04;89.33;99003.44;5073107;28;20809;-70
2021/10/21 01:47:08;;;;;;;0.40;0.30;;;;;;;17.04;89.20;98998.75;5072916;28;20508;-70
2021/10/21 01:49:35;;;;;;;0.40;0.20;;;;;;;17.10;88.73;98977.31;5073418;28;20437;-70
2021/10/21 01:52:01;;;;;;;0.40;0.30;;;;;;;17.12;88.66;98974.97;5073168;28;20441;-70
2021/10/21 01:54:29;;;;;;;0.40;0.30;;;;;;;17.05;89.34;98950.31;5073381;28;20441;-70
2021/10/21 01:56:55;;;;;;;0.40;0.30;;;;;;;17.07;89.07;98947.97;5073027;28;20460;-70
2021/10/21 01:59:22;;;;;;;0.40;0.30;;;;;;;16.99;89.23;98922.53;5073104;28;20448;-70
2021/10/21 02:01:48;;;;;;;0.50;0.37;;;;;;;16.94;88.50;98919.41;5072793;28;20958;-70
2021/10/21 02:04:15;;;;;;;0.40;0.30;;;;;;;16.95;89.37;98932.69;5073059;28;20444;-70
2021/10/21 02:06:41;;;;;;;0.40;0.23;;;;;;;16.98;89.57;98939.34;5072550;28;20484;-70
2021/10/21 02:09:08;;;;;;;0.40;0.30;;;;;;;16.98;89.59;98903.78;5073037;28;20437;-70
2021/10/21 02:11:36;;;;;;;0.40;0.30;;;;;;;16.98;89.76;98901.81;5073233;28;20437;-70
2021/10/21 02:14:02;;;;;;;0.40;0.20;;;;;;;17.04;89.18;98908.47;5073060;28;20844;-70
2021/10/21 02:16:29;;;;;;;0.40;0.20;;;;;;;17.05;89.14;98881.94;5072905;28;20465;-70
2021/10/21 02:18:55;;;;;;;0.40;0.30;;;;;;;17.00;88.94;98885.84;5072818;28;20452;-70
2021/10/21 02:21:22;;;;;;;0.40;0.20;;;;;;;17.07;88.93;98865.91;5072969;28;20444;-70
2021/10/21 02:23:48;;;;;;;0.40;0.30;;;;;;;17.05;88.92;98843.63;5072916;28;20441;-70
2021/10/21 02:26:15;;;;;;;0.40;0.30;;;;;;;17.09;88.33;98850.69;5072863;28;20445;-70
2021/10/21 02:28:43;;;;;;;0.40;0.20;;;;;;;17.06;88.66;98840.50;5072790;28;20492;-70
2021/10/21 02:31:09;;;;;;;0.40;0.30;;;;;;;17.01;88.45;98815.50;5072552;28;20958;-70
2021/10/21 02:33:35;;;;;;;0.40;0.20;;;;;;;17.01;88.42;98807.28;5072811;28;20444;-70
2021/10/21 02:36:02;;;;;;;0.40;0.30;;;;;;;17.05;88.40;98791.66;5072770;28;20448;-70
2021/10/21 02:38:28;;;;;;;0.40;0.20;;;;;;;17.07;88.03;98811.19;5072669;28;20595;-70
2021/10/21 02:40:55;;;;;;;0.40;0.27;;;;;;;17.10;87.53;98821.38;5072742;28;20448;-70
2021/10/21 02:43:22;;;;;;;0.40;0.30;;;;;;;17.12;87.21;98805.34;5072683;28;20445;-70
2021/10/21 02:45:49;;;;;;;0.40;0.30;;;;;;;17.15;86.95;98804.56;5072689;28;20441;-70
2021/10/21 02:48:16;;;;;;;0.40;0.20;;;;;;;17.21;86.46;98796.75;5074180;28;20492;-70
2021/10/21 02:50:42;;;;;;;0.40;0.30;;;;;;;17.16;86.42;98773.28;5076087;28;20436;-70
2021/10/21 02:53:09;;;;;;;0.40;0.30;;;;;;;17.17;86.83;98746.72;5076408;28;20444;-70
2021/10/21 02:55:35;;;;;;;0.40;0.30;;;;;;;17.12;86.35;98777.97;5076306;28;20448;-70
2021/10/21 02:58:01;;;;;;;0.40;0.30;;;;;;;17.15;85.70;98775.25;5076217;28;20460;-70
2021/10/21 03:00:28;;;;;;;0.40;0.30;;;;;;;17.19;85.66;98774.47;5076181;28;20437;-70
2021/10/21 03:02:56;;;;;;;0.40;0.20;;;;;;;17.19;85.44;98769.00;5076335;28;20448;-70
2021/10/21 03:05:24;;;;;;;0.40;0.30;;;;;;;17.14;85.85;98761.97;5076181;28;20814;-70
2021/10/21 03:07:51;;;;;;;0.40;0.30;;;;;;;17.14;85.62;98767.44;5075991;28;20554;-70
2021/10/21 03:10:17;;;;;;;0.40;0.30;;;;;;;17.13;85.95;98760.38;5075721;28;20437;-70
2021/10/21 03:12:44;;;;;;;0.40;0.30;;;;;;;17.13;86.12;98742.03;5075989;28;20498;-69
2021/10/21 03:15:11;;;;;;;0.40;0.30;;;;;;;17.12;85.59;98724.03;5075928;28;20445;-69
2021/10/21 03:17:41;;;;;;;0.40;0.30;;;;;;;17.10;85.84;98725.63;5075794;28;20500;-69
2021/10/21 03:20:12;;;;;;;0.40;0.20;;;;;;;17.07;86.43;98697.06;5075735;28;20551;-69
2021/10/21 03:22:38;;;;;;;0.40;0.20;;;;;;;17.16;85.79;98704.88;5075836;28;20500;-70
2021/10/21 03:25:07;;;;;;;0.40;0.30;;;;;;;17.20;85.62;98686.50;5075446;28;20445;-70
2021/10/21 03:27:33;;;;;;;0.40;0.30;;;;;;;17.24;85.46;98698.25;5075233;28;20926;-69
2021/10/21 03:29:59;;;;;;;0.40;0.30;;;;;;;17.22;85.95;98703.34;5075697;28;20464;-70
2021/10/21 03:32:26;;;;;;;0.40;0.30;;;;;;;17.21;86.07;98709.97;5075385;28;20927;-70
2021/10/21 03:34:52;;;;;;;0.40;0.20;;;;;;;17.21;86.00;98707.22;5075280;28;21049;-70
2021/10/21 03:37:20;;;;;;;0.40;0.20;;;;;;;17.20;86.62;98696.69;5075175;28;20982;-70
2021/10/21 03:39:49;;;;;;;0.40;0.30;;;;;;;17.19;86.34;98689.66;5075471;28;20440;-70
2021/10/21 03:42:16;;;;;;;0.40;0.20;;;;;;;17.17;86.65;98684.56;5075448;28;20484;-70
2021/10/21 03:44:42;;;;;;;0.40;0.20;;;;;;;17.17;86.91;98676.34;5075426;28;20453;-70
2021/10/21 03:47:09;;;;;;;0.40;0.30;;;;;;;17.15;86.88;98678.72;5074947;28;21040;-70
2021/10/21 03:49:36;;;;;;;1.33;1.23;;;;;;;17.16;86.93;98674.78;5075235;28;20548;-69
2021/10/21 03:52:03;;;;;;;0.40;0.30;;;;;;;17.18;86.20;98655.22;5075310;28;20793;-70
2021/10/21 03:54:31;;;;;;;0.40;0.30;;;;;;;17.22;85.64;98650.53;5075480;28;20446;-70
2021/10/21 03:56:57;;;;;;;0.40;0.30;;;;;;;17.21;85.35;98646.25;5075150;28;20472;-70
2021/10/21 03:59:24;;;;;;;1.47;1.37;;;;;;;17.18;85.20;98636.88;5074188;28;20452;-70
2021/10/21 04:01:53;;;;;;;0.40;0.20;;;;;;;17.17;84.48;98638.03;5075043;28;20658;-70
2021/10/21 04:04:19;;;;;;;0.40;0.30;;;;;;;17.22;83.31;98628.66;5075005;28;20451;-70
2021/10/21 04:06:46;;;;;;;0.40;0.30;;;;;;;17.28;82.33;98641.56;5074897;28;20457;-70
2021/10/21 04:09:12;;;;;;;0.40;0.30;;;;;;;17.32;81.97;98669.69;5074836;28;20572;-70
2021/10/21 04:11:40;;;;;;;0.40;0.20;;;;;;;17.32;82.78;98699.81;5074884;28;20434;-70
2021/10/21 04:14:06;;;;;;;0.40;0.30;;;;;;;17.23;84.12;98605.59;5074835;28;20432;-70
2021/10/21 04:16:33;;;;;;;0.40;0.30;;;;;;;16.96;87.01;98586.13;5074680;28;20461;-70
2021/10/21 04:18:59;;;;;;;0.40;0.30;;;;;;;16.67;89.70;98618.13;5074557;28;20449;-70
2021/10/21 04:21:26;;;;;;;0.40;0.30;;;;;;;16.46;90.35;98614.19;5074682;28;20517;-70
2021/10/21 04:23:54;;;;;;;0.40;0.30;;;;;;;16.31;90.56;98602.47;5074614;28;20445;-70
2021/10/21 04:26:20;;;;;;;0.40;0.30;;;;;;;16.16;91.44;98587.22;5074180;28;20954;-70
2021/10/21 04:28:48;;;;;;;0.40;0.30;;;;;;;16.09;89.08;98565.34;5074454;28;21102;-70
2021/10/21 04:31:15;;;;;;;0.40;0.20;;;;;;;16.08;90.90;98569.25;5074458;28;20437;-70
2021/10/21 04:33:41;;;;;;;0.40;0.30;;;;;;;16.10;89.22;98573.16;5074426;28;20457;-70
2021/10/21 04:36:07;;;;;;;0.40;0.30;;;;;;;16.10;87.49;98534.13;5074535;28;20445;-70
2021/10/21 04:38:34;;;;;;;0.40;0.20;;;;;;;16.08;89.34;98490.06;5074336;28;20450;-70
2021/10/21 04:41:01;;;;;;;0.40;0.30;;;;;;;16.03;89.10;98499.41;5074322;28;20429;-70
2021/10/21 04:43:27;;;;;;;0.40;0.20;;;;;;;16.08;86.73;98501.00;5074260;28;20433;-70
2021/10/21 04:45:55;;;;;;;0.40;0.30;;;;;;;16.12;86.87;98510.75;5074230;28;20448;-70
2021/10/21 04:48:22;;;;;;;0.40;0.20;;;;;;;16.14;86.21;98505.66;5061007;28;20489;-70
2021/10/21 04:50:48;;;;;;;0.40;0.30;;;;;;;16.14;85.64;98492.00;5054125;28;20442;-71
2021/10/21 04:53:15;;;;;;;0.40;0.30;;;;;;;16.18;85.65;98488.50;5054006;28;20443;-70
2021/10/21 04:55:41;;;;;;;0.40;0.20;;;;;;;16.16;86.46;98464.31;5053588;28;20446;-70
2021/10/21 04:58:08;;;;;;;0.40;0.30;;;;;;;16.12;87.07;98441.69;5053611;28;20979;-70
2021/10/21 05:00:35;;;;;;;0.40;0.20;;;;;;;16.10;86.46;98428.41;5053601;28;20447;-70
2021/10/21 05:03:08;;;;;;;0.40;0.30;;;;;;;16.08;87.15;98414.38;5053899;28;20693;-70
2021/10/21 05:05:35;;;;;;;0.40;0.30;;;;;;;16.05;87.10;98381.59;5063046;28;20453;-70
2021/10/21 05:08:01;;;;;;;0.40;0.30;;;;;;;15.93;89.57;98393.69;5073629;28;20492;-70
2021/10/21 05:10:28;;;;;;;0.40;0.30;;;;;;;15.98;88.15;98396.03;5073288;28;20809;-70
2021/10/21 05:12:54;;;;;;;0.40;0.30;;;;;;;16.01;87.82;98389.78;5073422;28;20961;-70
2021/10/21 05:15:21;;;;;;;0.40;0.20;;;;;;;15.91;89.22;98401.50;5073706;28;20449;-70
2021/10/21 05:17:48;;;;;;;0.40;0.23;;;;;;;15.92;88.75;98391.34;5073623;28;20548;-71
2021/10/21 05:20:15;;;;;;;0.40;0.20;;;;;;;15.97;87.86;98377.31;5073148;28;20954;-69
2021/10/21 05:22:42;;;;;;;0.40;0.30;;;;;;;16.02;86.94;98376.91;5073582;28;20445;-70
2021/10/21 05:25:09;;;;;;;0.40;0.30;;;;;;;16.02;86.75;98372.22;5071816;28;20812;-70
2021/10/21 05:27:37;;;;;;;0.40;0.30;;;;;;;16.04;87.29;98396.41;5053032;28;20975;-70
2021/10/21 05:30:03;;;;;;;0.40;0.20;;;;;;;16.02;87.88;98379.63;5053359;28;20529;-70
2021/10/21 05:32:30;;;;;;;0.40;0.30;;;;;;;15.95;88.61;98385.91;5053201;28;20935;-70
2021/10/21 05:34:56;;;;;;;0.40;0.30;;;;;;;16.01;87.23;98394.47;5053560;28;20516;-69
2021/10/21 05:37:25;;;;;;;0.40;0.30;;;;;;;16.05;87.21;98400.72;5072421;28;20942;-70
2021/10/21 05:39:51;;;;;;;0.40;0.30;;;;;;;16.12;86.66;98406.19;5073360;28;20437;-69
2021/10/21 05:42:18;;;;;;;0.40;0.30;;;;;;;16.16;85.61;98398.75;5073374;28;20442;-70
2021/10/21 05:44:44;;;;;;;0.40;0.20;;;;;;;16.23;85.60;98387.81;5073305;28;20445;-70
2021/10/21 05:47:11;;;;;;;0.40;0.30;;;;;;;16.27;85.07;98396.78;5073201;28;20465;-70
2021/10/21 05:49:37;;;;;;;0.40;0.30;;;;;;;16.37;84.50;98381.53;5073170;28;20480;-71
2021/10/21 05:52:04;;;;;;;0.40;0.20;;;;;;;16.47;84.25;98379.94;5072862;28;20819;-71
2021/10/21 05:54:32;;;;;;;0.40;0.30;;;;;;;16.51;83.41;98377.97;5073213;28;20480;-71
2021/10/21 05:56:59;;;;;;;0.40;0.30;;;;;;;16.63;82.35;98370.13;5072759;28;20821;-72
2021/10/21 05:59:25;;;;;;;0.40;0.30;;;;;;;16.67;81.67;98353.72;5073138;28;20438;-70
2021/10/21 06:01:51;;;;;;;0.40;0.30;;;;;;;16.81;78.81;98359.16;5073145;28;20444;-70
2021/10/21 06:04:18;;;;;;;0.40;0.23;;;;;;;16.92;78.45;98359.13;5073070;28;20447;-70
2021/10/21 06:06:45;;;;;;;0.40;0.30;;;;;;;17.02;78.02;98362.97;5074357;28;20473;-70
2021/10/21 06:09:12;;;;;;;0.40;0.30;;;;;;;17.05;77.08;98364.94;5072991;28;20570;-70
2021/10/21 06:11:39;;;;;;;0.40;0.27;;;;;;;17.04;77.62;98353.19;5073006;28;20444;-70
2021/10/21 06:14:07;;;;;;;0.40;0.30;;;;;;;17.10;77.40;98342.63;5073011;28;20851;-70
2021/10/21 06:16:34;;;;;;;0.40;0.30;;;;;;;17.14;75.97;98346.13;5072951;28;20453;-70
2021/10/21 06:19:01;;;;;;;0.40;0.30;;;;;;;17.17;75.46;98347.25;5072768;28;20844;-70
2021/10/21 06:21:28;;;;;;;0.40;0.30;;;;;;;17.09;75.72;98338.34;5072936;28;20425;-71
2021/10/21 06:23:55;;;;;;;0.40;0.30;;;;;;;17.10;75.01;98337.16;5075689;28;20448;-70
2021/10/21 06:26:22;;;;;;;0.40;0.30;;;;;;;17.08;75.16;98345.75;5076857;28;20443;-71
2021/10/21 06:28:51;;;;;;;0.40;0.27;;;;;;;17.07;73.49;98324.25;5076476;28;20481;-71
2021/10/21 06:31:19;;;;;;;0.40;0.20;;;;;;;17.12;73.19;98332.81;5076909;28;20873;-72
2021/10/21 06:33:46;;;;;;;0.40;0.20;;;;;;;17.12;73.18;98337.50;5076763;28;20448;-71
2021/10/21 06:36:13;;;;;;;0.40;0.30;;;;;;;17.14;73.08;98326.97;5076946;28;20900;-71
2021/10/21 06:38:40;;;;;;;0.40;0.30;;;;;;;17.12;71.93;98338.28;5076657;28;20448;-71
2021/10/21 06:41:07;;;;;;;0.40;0.30;;;;;;;17.13;71.83;98361.75;5076598;28;20515;-71
2021/10/21 06:43:34;;;;;;;0.40;0.23;;;;;;;17.12;71.59;98346.50;5076538;28;20440;-71
2021/10/21 06:46:02;;;;;;;0.40;0.30;;;;;;;17.12;72.35;98346.50;5076503;28;20444;-71
2021/10/21 06:48:28;;;;;;;0.40;0.30;;;;;;;17.07;70.25;98368.03;5076027;28;21013;-71
2021/10/21 06:50:55;;;;;;;0.40;0.30;;;;;;;17.12;69.43;98359.41;5076403;28;20445;-71
2021/10/21 06:53:21;;;;;;;0.40;0.30;;;;;;;17.06;70.65;98370.00;5076361;28;20437;-71
2021/10/21 06:55:48;;;;;;;0.40;0.30;;;;;;;17.00;67.88;98366.13;5076255;28;20452;-71
2021/10/21 06:58:14;;;;;;;0.40;0.20;;;;;;;16.97;67.13;98382.53;5076177;28;20453;-71
2021/10/21 07:00:42;;;;;;;0.40;0.20;;;;;;;16.98;66.65;98368.47;5066916;28;20462;-71
2021/10/21 07:03:10;;;;;;;0.40;0.20;;;;;;;16.92;67.92;98407.56;5056211;28;20441;-71
2021/10/21 07:05:40;;;;;;;0.40;0.30;;;;;;;16.89;63.66;98393.50;5056052;28;20456;-71
2021/10/21 07:08:06;;;;;;;0.40;0.20;;;;;;;16.86;64.08;98386.09;5055931;28;20465;-71
2021/10/21 07:10:33;;;;;;;0.40;0.20;;;;;;;16.80;64.37;98398.63;5056076;28;20887;-71
2021/10/21 07:13:03;;;;;;;0.40;0.20;;;;;;;16.79;64.19;98393.56;5055950;28;20820;-71
2021/10/21 07:15:29;;;;;;;0.40;0.30;;;;;;;16.74;65.33;98386.53;5055976;28;20438;-71
2021/10/21 07:17:56;;;;;;;0.40;0.20;;;;;;;16.64;63.17;98395.50;5056078;28;20466;-71
2021/10/21 07:20:24;;;;;;;0.40;0.27;;;;;;;16.59;65.22;98398.66;5055526;28;20462;-71
2021/10/21 07:22:51;;;;;;;0.40;0.30;;;;;;;16.53;65.35;98397.50;5055782;28;20466;-71
2021/10/21 07:25:17;;;;;;;0.40;0.30;;;;;;;16.49;62.92;98394.00;5055806;28;20541;-71
2021/10/21 07:27:44;;;;;;;0.40;0.30;;;;;;;16.46;64.20;98414.69;5055678;28;20462;-70
2021/10/21 07:30:11;;;;;;;0.40;0.30;;;;;;;16.48;63.74;98406.13;5055548;28;20582;-72
2021/10/21 07:32:38;;;;;;;0.40;0.20;;;;;;;16.46;62.65;98417.44;5055627;28;20438;-69
2021/10/21 07:35:06;;;;;;;0.40;0.30;;;;;;;16.50;61.67;98409.22;5054249;28;20446;-72
2021/10/21 07:37:34;;;;;;;0.40;0.20;;;;;;;16.52;61.70;98415.09;5055446;28;20462;-71
2021/10/21 07:40:01;;;;;;;0.40;0.30;;;;;;;16.47;61.70;98410.00;5055565;28;20446;-71
2021/10/21 07:42:27;;;;;;;0.40;0.20;;;;;;;16.44;61.71;98411.59;5055460;28;20445;-71
2021/10/21 07:44:53;;;;;;;0.40;0.30;;;;;;;16.40;62.34;98419.78;5055142;28;20938;-71
2021/10/21 07:47:20;;;;;;;0.40;0.30;;;;;;;16.36;61.64;98427.22;5055291;28;20466;-71
2021/10/21 07:49:46;;;;;;;0.40;0.20;;;;;;;16.33;63.91;98449.84;5055290;28;20518;-71
2021/10/21 07:52:16;;;;;;;0.40;0.30;;;;;;;16.33;61.06;98406.13;5055291;28;20450;-71
2021/10/21 07:54:44;;;;;;;0.40;0.20;;;;;;;16.36;61.15;98410.81;5055234;28;20446;-71
2021/10/21 07:57:12;;;;;;;0.40;0.30;;;;;;;16.35;61.77;98414.72;5055113;28;20549;-71
2021/10/21 07:59:39;;;;;;;0.40;0.20;;;;;;;16.37;61.04;98425.25;5055157;28;20446;-71
2021/10/21 08:02:06;;;;;;;0.40;0.20;;;;;;;16.36;61.75;98412.78;5055082;28;20454;-70
2021/10/21 08:04:33;;;;;;;0.40;0.30;;;;;;;16.40;61.31;98416.28;5055187;28;20505;-71
2021/10/21 08:07:01;;;;;;;0.40;0.30;;;;;;;16.40;61.37;98411.59;5055140;28;20469;-70
2021/10/21 08:09:30;;;;;;;0.40;0.30;;;;;;;16.53;61.64;98420.16;5054965;28;20671;-70
2021/10/21 08:11:59;;;;;;;0.40;0.20;;;;;;;16.67;60.04;98418.56;5054675;28;20936;-68
2021/10/21 08:14:25;;;;;;;0.40;0.30;;;;;;;16.71;60.03;98408.41;5067064;28;20472;-68
2021/10/21 08:16:52;;;;;;;0.40;0.30;;;;;;;16.65;58.92;98389.66;5074839;28;20465;-68
2021/10/21 08:19:19;;;;;;;0.40;0.30;;;;;;;16.67;59.10;98402.94;5074554;28;20471;-69
2021/10/21 08:21:47;;;;;;;0.40;0.30;;;;;;;16.62;59.99;98395.16;5074711;28;20452;-68
2021/10/21 08:24:14;;;;;;;0.40;0.30;;;;;;;16.64;59.32;98390.03;5074685;28;20453;-69
2021/10/21 08:26:41;;;;;;;0.40;0.30;;;;;;;16.65;59.22;98403.34;5074512;28;20465;-69
2021/10/21 08:29:09;;;;;;;0.40;0.40;;;;;;;16.62;60.88;98395.91;5074570;28;20520;-69
2021/10/21 08:31:36;;;;;;;0.40;0.20;;;;;;;16.48;60.69;98395.19;5074504;28;20448;-69
2021/10/21 08:34:02;;;;;;;0.40;0.30;;;;;;;16.56;60.06;98394.00;5074556;28;20447;-69
2021/10/21 08:36:29;;;;;;;0.40;0.30;;;;;;;16.58;61.35;98372.50;5074730;28;20446;-69
2021/10/21 08:38:56;;;;;;;0.40;0.30;;;;;;;16.50;59.45;98387.34;5074524;28;20482;-68
2021/10/21 08:41:23;;;;;;;0.40;0.20;;;;;;;16.51;58.92;98375.25;5074394;28;20445;-69
2021/10/21 08:43:50;;;;;;;0.40;0.30;;;;;;;16.56;58.58;98372.13;5074064;28;20532;-69
2021/10/21 08:46:22;;;;;;;0.40;0.20;;;;;;;16.61;57.91;98379.94;5074067;28;20445;-69
2021/10/21 08:48:51;;;;;;;0.40;0.30;;;;;;;16.63;58.92;98393.97;5074183;28;20444;-69
2021/10/21 08:51:17;;;;;;;0.40;0.30;;;;;;;16.69;58.85;98389.66;5074092;28;20448;-69
2021/10/21 08:53:44;;;;;;;0.40;0.30;;;;;;;16.71;59.91;98390.03;5061950;28;20458;-69
2021/10/21 08:56:10;;;;;;;0.40;0.20;;;;;;;16.54;61.41;98382.66;5053934;28;20460;-69
2021/10/21 08:58:37;;;;;;;0.40;0.30;;;;;;;16.44;61.61;98372.56;5053903;28;20449;-69
2021/10/21 09:01:06;;;;;;;0.40;0.30;;;;;;;16.39;60.44;98376.47;5053956;28;20450;-69
2021/10/21 09:03:44;;;;;;;0.40;0.20;;;;;;;16.34;60.34;98374.91;5053888;28;20453;-69
2021/10/21 09:06:22;;;;;;;0.40;0.30;;;;;;;16.34;61.69;98385.06;5053780;28;20509;-69
2021/10/21 09:08:49;;;;;;;0.40;0.30;;;;;;;16.31;60.11;98392.09;5053791;28;20470;-70
2021/10/21 09:11:20;;;;;;;0.40;0.20;;;;;;;16.31;60.82;98375.69;5053721;28;21015;-68
2021/10/21 09:13:47;;;;;;;0.40;0.30;;;;;;;16.34;60.77;98402.25;5053779;28;20426;-69
2021/10/21 09:16:19;;;;;;;0.40;0.27;;;;;;;16.37;60.92;98387.78;5053622;28;20458;-68
2021/10/21 09:18:49;;;;;;;0.40;0.30;;;;;;;16.36;61.51;98415.50;5053495;28;20461;-69
2021/10/21 09:21:30;;;;;;;0.40;0.30;;;;;;;16.33;62.68;98389.72;5053400;28;20522;-68
2021/10/21 09:23:58;;;;;;;0.40;0.30;;;;;;;16.32;60.43;98409.25;5053292;28;20924;-68
2021/10/21 09:26:25;;;;;;;0.40;0.30;;;;;;;16.26;62.05;98383.53;5053478;28;20442;-69
2021/10/21 09:28:52;;;;;;;0.40;0.30;;;;;;;16.22;61.89;98404.59;5053151;28;20966;-69
2021/10/21 09:31:19;;;;;;;0.40;0.20;;;;;;;16.14;62.02;98392.91;5053497;28;20438;-69
2021/10/21 09:33:49;;;;;;;0.40;0.20;;;;;;;16.17;62.42;98403.03;5053417;28;20469;-69
2021/10/21 09:36:20;;;;;;;0.40;0.30;;;;;;;16.22;61.80;98405.38;5053350;28;20935;-69
2021/10/21 09:38:52;;;;;;;0.40;0.20;;;;;;;16.17;63.97;98405.78;5053426;28;20800;-69
2021/10/21 09:41:20;;;;;;;0.40;0.20;;;;;;;16.08;62.94;98381.59;5053392;28;20458;-69
2021/10/21 09:43:48;;;;;;;1.37;1.27;;;;;;;16.14;62.19;98384.69;5052957;28;20450;-69
2021/10/21 09:46:37;;;;;;;0.40;0.30;;;;;;;16.25;63.49;98382.75;5053270;28;20446;-69
2021/10/21 09:49:25;;;;;;;0.40;0.30;;;;;;;16.36;61.18;98396.38;5053162;28;20433;-69
2021/10/21 09:51:53;;;;;;;0.40;0.20;;;;;;;16.38;60.63;98399.50;5053281;28;20449;-69
2021/10/21 09:54:20;;;;;;;0.40;0.20;;;;;;;16.35;60.40;98403.03;5053193;28;20446;-69
2021/10/21 09:56:57;;;;;;;0.40;0.30;;;;;;;16.30;61.85;98385.06;5052812;28;20474;-69
2021/10/21 09:59:28;;;;;;;0.40;0.30;;;;;;;16.30;62.31;98430.75;5052904;28;20442;-69
2021/10/21 10:01:57;;;;;;;0.40;0.30;;;;;;;16.30;61.06;98441.66;5053193;28;20834;-69
2021/10/21 10:04:27;;;;;;;0.40;0.30;;;;;;;16.30;60.50;98460.78;5053119;28;20441;-70
2021/10/21 10:06:58;;;;;;;0.40;0.30;;;;;;;16.27;59.99;98443.22;5053018;28;20465;-70
2021/10/21 10:09:31;;;;;;;0.40;0.30;;;;;;;16.31;60.41;98457.66;5053005;28;20466;-69
2021/10/21 10:11:58;;;;;;;0.40;0.20;;;;;;;16.29;60.36;98459.22;5053079;28;20427;-68
2021/10/21 10:14:26;;;;;;;0.40;0.20;;;;;;;16.18;62.58;98453.00;5053021;28;20507;-69
2021/10/21 10:16:52;;;;;;;0.40;0.30;;;;;;;16.17;62.60;98449.47;5052905;28;20466;-67
2021/10/21 10:19:22;;;;;;;0.40;0.27;;;;;;;16.08;66.53;98471.72;5052851;28;20458;-67
2021/10/21 10:21:52;;;;;;;0.40;0.20;;;;;;;15.69;71.05;98476.34;5052632;28;20453;-68
2021/10/21 10:24:19;;;;;;;0.40;0.20;;;;;;;15.26;73.28;98476.97;5052954;28;20430;-68
2021/10/21 10:26:47;;;;;;;0.40;0.20;;;;;;;15.01;74.00;98504.16;5052948;28;20473;-67
2021/10/21 10:29:14;;;;;;;0.40;0.30;;;;;;;15.03;72.92;98468.31;5052783;28;20485;-67
2021/10/21 10:31:43;;;;;;;0.40;0.30;;;;;;;14.97;76.36;98508.03;5052853;28;20450;-68
2021/10/21 10:34:30;;;;;;;0.40;0.30;;;;;;;14.96;73.60;98504.47;5053113;28;20454;-68
2021/10/21 10:37:36;;;;;;;0.40;0.20;;;;;;;14.98;74.78;98515.81;5052763;28;20462;-67
2021/10/21 10:40:04;;;;;;;0.40;0.30;;;;;;;14.95;75.87;98538.38;5052661;28;20449;-68
2021/10/21 10:42:59;;;;;;;0.40;0.30;;;;;;;14.87;80.55;98580.38;5053049;28;20438;-68
2021/10/21 10:45:38;;;;;;;0.40;0.30;;;;;;;14.29;89.18;98639.00;5052961;28;20507;-69
2021/10/21 10:48:05;;;;;;;0.40;0.30;;;;;;;13.76;91.76;98644.63;5052840;28;20466;-70
2021/10/21 10:50:53;;;;;;;0.40;0.30;;;;;;;13.36;94.24;98656.94;5052399;28;21064;-69
2021/10/21 10:53:46;;;;;;;0.40;0.30;;;;;;;13.03;93.43;98713.88;5052856;28;20445;-69
2021/10/21 10:56:41;;;;;;;0.40;0.30;;;;;;;12.93;92.81;98701.69;5053001;28;20473;-69
2021/10/21 10:59:30;;;;;;;0.40;0.30;;;;;;;13.03;90.56;98711.16;5052902;28;20445;-68
2021/10/21 11:01:57;;;;;;;0.40;0.30;;;;;;;13.17;86.28;98727.69;5053129;28;20492;-69
2021/10/21 11:05:03;;;;;;;0.40;0.30;;;;;;;13.10;85.44;98733.00;5052699;28;20816;-68
2021/10/21 11:07:47;;;;;;;0.40;0.20;;;;;;;13.02;85.30;98751.16;5047761;28;20478;-68
2021/10/21 11:10:38;;;;;;;0.40;0.20;;;;;;;13.01;83.68;98757.72;5055348;28;20485;-68
2021/10/21 11:13:39;;;;;;;0.40;0.30;;;;;;;13.04;83.95;98783.38;5056217;28;20446;-68
2021/10/21 11:16:41;;;;;;;0.40;0.27;;;;;;;13.17;83.51;98790.22;5055875;28;20781;-68
2021/10/21 11:19:08;;;;;;;0.40;0.30;;;;;;;13.37;81.47;98810.81;5055960;28;20462;-68
2021/10/21 11:21:55;;;;;;;0.40;0.20;;;;;;;13.55;79.84;98830.13;5056291;28;20446;-69
2021/10/21 11:24:57;;;;;;;0.40;0.30;;;;;;;13.57;80.76;98848.81;5056063;28;20463;-68
2021/10/21 11:27:36;;;;;;;0.40;0.20;;;;;;;13.25;86.40;98870.81;5056079;28;20519;-68
2021/10/21 11:30:19;;;;;;;0.40;0.30;;;;;;;12.85;89.87;98890.19;5056085;28;20462;-68
2021/10/21 11:32:47;;;;;;;0.40;0.30;;;;;;;12.68;91.69;98917.78;5053766;28;20494;-68
2021/10/21 11:35:18;;;;;;;0.40;0.30;;;;;;;12.47;94.14;98939.81;5055750;28;20457;-68
2021/10/21 11:37:47;;;;;;;0.40;0.30;;;;;;;12.18;96.16;98930.25;5055645;28;20494;-68
2021/10/21 11:40:23;;;;;;;0.40;0.30;;;;;;;12.01;95.04;98955.84;5055501;28;20504;-69
2021/10/21 11:42:53;;;;;;;0.40;0.30;;;;;;;11.80;96.06;98954.13;5055377;28;20901;-67